ISO weather

Kinston Regional Jetport At Stallings Field
Kinston, North Carolina, United States

Public forecast

Using degrees Fahrenheit for public forecast. Weather courtesy of forecast.io.

Current aviation weather report (METAR) for Kinston Regional Jetport At Stallings Field

Retrieved 2019/12/07 12:56 UTC (1 hour ago):

KISO 071256Z 03006KT 10SM CLR 08/04 A3029

Aviation forecast (TAF) for Kinston Regional Jetport At Stallings Field

Retrieved 2019/12/07 12:45 UTC (1 hour ago):

TAF KISO 071142Z 0712/0812 03005KT P6SM FEW250 FM071500 03011KT P6SM FEW250 FM072300 00000KT P6SM FEW250 AMD LTD TO CLD VIS AND WIND